sensor_id;sensor_type;location;lat;lon;timestamp;P1;durP1;ratioP1;P2;durP2;ratioP2
27558;SDS011;15002;52.028;5.670;2023-06-24T00:00:08;7.68;;;6.85;;
27558;SDS011;15002;52.028;5.670;2023-06-24T00:02:37;8.35;;;6.53;;
27558;SDS011;15002;52.028;5.670;2023-06-24T00:05:03;8.63;;;6.68;;
27558;SDS011;15002;52.028;5.670;2023-06-24T00:07:30;8.68;;;6.38;;
27558;SDS011;15002;52.028;5.670;2023-06-24T00:09:56;9.35;;;6.55;;
27558;SDS011;15002;52.028;5.670;2023-06-24T00:12:21;11.40;;;7.07;;
27558;SDS011;15002;52.028;5.670;2023-06-24T00:14:47;8.25;;;6.63;;
27558;SDS011;15002;52.028;5.670;2023-06-24T00:17:13;8.38;;;6.97;;
27558;SDS011;15002;52.028;5.670;2023-06-24T00:19:41;10.57;;;7.15;;
27558;SDS011;15002;52.028;5.670;2023-06-24T00:22:09;8.13;;;6.95;;
27558;SDS011;15002;52.028;5.670;2023-06-24T00:24:34;11.10;;;6.25;;
27558;SDS011;15002;52.028;5.670;2023-06-24T00:27:00;7.82;;;7.03;;
27558;SDS011;15002;52.028;5.670;2023-06-24T00:29:26;10.90;;;9.50;;
27558;SDS011;15002;52.028;5.670;2023-06-24T00:31:51;11.15;;;8.00;;
27558;SDS011;15002;52.028;5.670;2023-06-24T00:34:17;8.45;;;6.78;;
27558;SDS011;15002;52.028;5.670;2023-06-24T00:36:45;9.90;;;7.07;;
27558;SDS011;15002;52.028;5.670;2023-06-24T00:39:12;10.50;;;7.22;;
27558;SDS011;15002;52.028;5.670;2023-06-24T00:41:37;10.73;;;7.60;;
27558;SDS011;15002;52.028;5.670;2023-06-24T00:44:03;9.60;;;6.82;;
27558;SDS011;15002;52.028;5.670;2023-06-24T00:46:29;9.85;;;7.15;;
27558;SDS011;15002;52.028;5.670;2023-06-24T00:48:58;8.77;;;6.88;;
27558;SDS011;15002;52.028;5.670;2023-06-24T00:51:25;11.88;;;7.38;;
27558;SDS011;15002;52.028;5.670;2023-06-24T00:53:54;9.38;;;6.68;;
27558;SDS011;15002;52.028;5.670;2023-06-24T00:56:25;8.80;;;6.75;;
27558;SDS011;15002;52.028;5.670;2023-06-24T00:58:54;8.35;;;7.07;;
27558;SDS011;15002;52.028;5.670;2023-06-24T01:01:21;10.18;;;6.90;;
27558;SDS011;15002;52.028;5.670;2023-06-24T01:03:49;11.30;;;7.35;;
27558;SDS011;15002;52.028;5.670;2023-06-24T01:06:14;13.20;;;8.32;;
27558;SDS011;15002;52.028;5.670;2023-06-24T01:08:40;16.05;;;9.43;;
27558;SDS011;15002;52.028;5.670;2023-06-24T01:11:06;13.48;;;10.07;;
27558;SDS011;15002;52.028;5.670;2023-06-24T01:13:32;12.57;;;10.90;;
27558;SDS011;15002;52.028;5.670;2023-06-24T01:16:02;14.55;;;11.25;;
27558;SDS011;15002;52.028;5.670;2023-06-24T01:18:38;15.25;;;11.52;;
27558;SDS011;15002;52.028;5.670;2023-06-24T01:21:51;18.25;;;11.63;;
27558;SDS011;15002;52.028;5.670;2023-06-24T01:28:05;14.98;;;11.70;;
27558;SDS011;15002;52.028;5.670;2023-06-24T01:33:11;15.70;;;11.55;;
27558;SDS011;15002;52.028;5.670;2023-06-24T01:35:37;14.70;;;12.00;;
27558;SDS011;15002;52.028;5.670;2023-06-24T01:38:07;15.48;;;11.95;;
27558;SDS011;15002;52.028;5.670;2023-06-24T01:40:40;15.57;;;11.50;;
27558;SDS011;15002;52.028;5.670;2023-06-24T01:43:09;15.27;;;11.25;;
27558;SDS011;15002;52.028;5.670;2023-06-24T01:45:46;15.48;;;11.25;;
27558;SDS011;15002;52.028;5.670;2023-06-24T01:48:16;15.55;;;11.20;;
27558;SDS011;15002;52.028;5.670;2023-06-24T01:50:58;17.73;;;11.40;;
27558;SDS011;15002;52.028;5.670;2023-06-24T01:53:30;14.60;;;11.13;;
27558;SDS011;15002;52.028;5.670;2023-06-24T01:55:59;13.90;;;10.25;;
27558;SDS011;15002;52.028;5.670;2023-06-24T01:58:26;16.67;;;11.05;;
27558;SDS011;15002;52.028;5.670;2023-06-24T02:00:53;15.57;;;11.20;;
27558;SDS011;15002;52.028;5.670;2023-06-24T02:03:20;11.55;;;10.32;;
27558;SDS011;15002;52.028;5.670;2023-06-24T02:05:47;13.35;;;10.40;;
27558;SDS011;15002;52.028;5.670;2023-06-24T02:08:14;13.07;;;10.10;;
27558;SDS011;15002;52.028;5.670;2023-06-24T02:10:41;16.40;;;10.38;;
27558;SDS011;15002;52.028;5.670;2023-06-24T02:13:09;14.07;;;10.65;;
27558;SDS011;15002;52.028;5.670;2023-06-24T02:15:36;14.05;;;9.65;;
27558;SDS011;15002;52.028;5.670;2023-06-24T02:18:04;12.95;;;10.25;;
27558;SDS011;15002;52.028;5.670;2023-06-24T02:20:31;14.05;;;10.82;;
27558;SDS011;15002;52.028;5.670;2023-06-24T02:22:57;13.18;;;9.98;;
27558;SDS011;15002;52.028;5.670;2023-06-24T02:25:24;13.00;;;9.80;;
27558;SDS011;15002;52.028;5.670;2023-06-24T02:27:55;12.85;;;10.38;;
27558;SDS011;15002;52.028;5.670;2023-06-24T02:30:21;14.73;;;9.98;;
27558;SDS011;15002;52.028;5.670;2023-06-24T02:32:48;12.50;;;9.80;;
27558;SDS011;15002;52.028;5.670;2023-06-24T02:35:14;15.25;;;10.88;;
27558;SDS011;15002;52.028;5.670;2023-06-24T02:37:39;14.63;;;10.23;;
27558;SDS011;15002;52.028;5.670;2023-06-24T02:40:06;15.20;;;10.93;;
27558;SDS011;15002;52.028;5.670;2023-06-24T02:42:33;17.70;;;10.85;;
27558;SDS011;15002;52.028;5.670;2023-06-24T02:44:58;16.23;;;11.20;;
27558;SDS011;15002;52.028;5.670;2023-06-24T02:47:24;15.65;;;11.65;;
27558;SDS011;15002;52.028;5.670;2023-06-24T02:49:51;17.25;;;11.90;;
27558;SDS011;15002;52.028;5.670;2023-06-24T02:52:19;16.60;;;12.20;;
27558;SDS011;15002;52.028;5.670;2023-06-24T02:54:45;16.30;;;11.90;;
27558;SDS011;15002;52.028;5.670;2023-06-24T02:57:11;16.55;;;11.93;;
27558;SDS011;15002;52.028;5.670;2023-06-24T02:59:39;16.67;;;12.93;;
27558;SDS011;15002;52.028;5.670;2023-06-24T03:02:04;16.35;;;12.25;;
27558;SDS011;15002;52.028;5.670;2023-06-24T03:04:30;17.08;;;12.90;;
27558;SDS011;15002;52.028;5.670;2023-06-24T03:06:56;19.13;;;13.63;;
27558;SDS011;15002;52.028;5.670;2023-06-24T03:09:26;18.65;;;13.00;;
27558;SDS011;15002;52.028;5.670;2023-06-24T03:11:52;18.63;;;13.45;;
27558;SDS011;15002;52.028;5.670;2023-06-24T03:14:18;20.83;;;13.27;;
27558;SDS011;15002;52.028;5.670;2023-06-24T03:16:44;18.08;;;13.25;;
27558;SDS011;15002;52.028;5.670;2023-06-24T03:19:09;22.98;;;13.57;;
27558;SDS011;15002;52.028;5.670;2023-06-24T03:21:35;18.50;;;13.20;;
27558;SDS011;15002;52.028;5.670;2023-06-24T03:24:01;19.63;;;13.80;;
27558;SDS011;15002;52.028;5.670;2023-06-24T03:26:34;16.50;;;12.63;;
27558;SDS011;15002;52.028;5.670;2023-06-24T03:29:00;17.85;;;13.88;;
27558;SDS011;15002;52.028;5.670;2023-06-24T03:31:26;19.77;;;13.73;;
27558;SDS011;15002;52.028;5.670;2023-06-24T03:33:52;20.38;;;13.75;;
27558;SDS011;15002;52.028;5.670;2023-06-24T03:36:17;18.48;;;14.15;;
27558;SDS011;15002;52.028;5.670;2023-06-24T03:38:43;20.83;;;14.75;;
27558;SDS011;15002;52.028;5.670;2023-06-24T03:41:09;19.52;;;14.00;;
27558;SDS011;15002;52.028;5.670;2023-06-24T03:43:34;19.38;;;13.80;;
27558;SDS011;15002;52.028;5.670;2023-06-24T03:46:00;18.20;;;13.15;;
27558;SDS011;15002;52.028;5.670;2023-06-24T03:48:27;17.75;;;13.68;;
27558;SDS011;15002;52.028;5.670;2023-06-24T03:50:53;20.45;;;15.05;;
27558;SDS011;15002;52.028;5.670;2023-06-24T03:53:18;18.83;;;13.32;;
27558;SDS011;15002;52.028;5.670;2023-06-24T03:55:44;19.58;;;13.50;;
27558;SDS011;15002;52.028;5.670;2023-06-24T03:58:10;20.25;;;14.80;;
27558;SDS011;15002;52.028;5.670;2023-06-24T04:00:35;19.63;;;13.90;;
27558;SDS011;15002;52.028;5.670;2023-06-24T04:03:05;18.83;;;14.23;;
27558;SDS011;15002;52.028;5.670;2023-06-24T04:05:32;17.48;;;13.07;;
27558;SDS011;15002;52.028;5.670;2023-06-24T04:07:58;18.63;;;13.88;;
27558;SDS011;15002;52.028;5.670;2023-06-24T04:10:24;18.25;;;13.35;;
27558;SDS011;15002;52.028;5.670;2023-06-24T04:12:50;19.83;;;13.27;;
27558;SDS011;15002;52.028;5.670;2023-06-24T04:15:16;22.00;;;13.68;;
27558;SDS011;15002;52.028;5.670;2023-06-24T04:17:42;16.30;;;12.73;;
27558;SDS011;15002;52.028;5.670;2023-06-24T04:20:07;18.73;;;12.70;;
27558;SDS011;15002;52.028;5.670;2023-06-24T04:22:34;17.27;;;13.43;;
27558;SDS011;15002;52.028;5.670;2023-06-24T04:25:01;16.48;;;12.80;;
27558;SDS011;15002;52.028;5.670;2023-06-24T04:27:26;16.95;;;12.40;;
27558;SDS011;15002;52.028;5.670;2023-06-24T04:29:52;17.42;;;11.75;;
27558;SDS011;15002;52.028;5.670;2023-06-24T04:32:17;15.85;;;11.15;;
27558;SDS011;15002;52.028;5.670;2023-06-24T04:34:43;16.13;;;10.30;;
27558;SDS011;15002;52.028;5.670;2023-06-24T04:37:09;13.35;;;10.50;;
27558;SDS011;15002;52.028;5.670;2023-06-24T04:39:34;12.95;;;10.63;;
27558;SDS011;15002;52.028;5.670;2023-06-24T04:42:00;11.60;;;9.65;;
27558;SDS011;15002;52.028;5.670;2023-06-24T04:44:25;14.77;;;10.57;;
27558;SDS011;15002;52.028;5.670;2023-06-24T04:46:51;12.65;;;9.48;;
27558;SDS011;15002;52.028;5.670;2023-06-24T04:49:17;14.80;;;10.70;;
27558;SDS011;15002;52.028;5.670;2023-06-24T04:51:43;14.50;;;10.05;;
27558;SDS011;15002;52.028;5.670;2023-06-24T04:54:09;11.27;;;9.48;;
27558;SDS011;15002;52.028;5.670;2023-06-24T04:56:37;11.43;;;8.65;;
27558;SDS011;15002;52.028;5.670;2023-06-24T04:59:03;12.60;;;9.13;;
27558;SDS011;15002;52.028;5.670;2023-06-24T05:01:28;10.63;;;8.50;;
27558;SDS011;15002;52.028;5.670;2023-06-24T05:03:54;11.48;;;8.30;;
27558;SDS011;15002;52.028;5.670;2023-06-24T05:06:20;13.32;;;9.23;;
27558;SDS011;15002;52.028;5.670;2023-06-24T05:08:45;10.20;;;8.25;;
27558;SDS011;15002;52.028;5.670;2023-06-24T05:11:11;9.45;;;8.35;;
27558;SDS011;15002;52.028;5.670;2023-06-24T05:13:37;9.80;;;7.32;;
27558;SDS011;15002;52.028;5.670;2023-06-24T05:16:02;9.55;;;7.75;;
27558;SDS011;15002;52.028;5.670;2023-06-24T05:18:28;12.18;;;8.45;;
27558;SDS011;15002;52.028;5.670;2023-06-24T05:20:54;13.02;;;8.02;;
27558;SDS011;15002;52.028;5.670;2023-06-24T05:23:19;12.32;;;9.07;;
27558;SDS011;15002;52.028;5.670;2023-06-24T05:25:45;9.80;;;7.88;;
27558;SDS011;15002;52.028;5.670;2023-06-24T05:28:10;10.60;;;7.95;;
27558;SDS011;15002;52.028;5.670;2023-06-24T05:30:36;10.18;;;7.18;;
27558;SDS011;15002;52.028;5.670;2023-06-24T05:33:02;8.35;;;6.93;;
27558;SDS011;15002;52.028;5.670;2023-06-24T05:35:28;8.40;;;6.55;;
27558;SDS011;15002;52.028;5.670;2023-06-24T05:37:54;8.32;;;6.63;;
27558;SDS011;15002;52.028;5.670;2023-06-24T05:40:19;10.43;;;7.00;;
27558;SDS011;15002;52.028;5.670;2023-06-24T05:42:45;8.65;;;6.88;;
27558;SDS011;15002;52.028;5.670;2023-06-24T05:45:11;9.70;;;6.97;;
27558;SDS011;15002;52.028;5.670;2023-06-24T05:47:37;10.48;;;6.72;;
27558;SDS011;15002;52.028;5.670;2023-06-24T05:50:03;10.38;;;7.20;;
27558;SDS011;15002;52.028;5.670;2023-06-24T05:52:29;8.20;;;6.15;;
27558;SDS011;15002;52.028;5.670;2023-06-24T05:54:55;9.88;;;6.68;;
27558;SDS011;15002;52.028;5.670;2023-06-24T05:57:20;11.35;;;7.15;;
27558;SDS011;15002;52.028;5.670;2023-06-24T05:59:46;9.63;;;7.40;;
27558;SDS011;15002;52.028;5.670;2023-06-24T06:02:12;10.65;;;7.15;;
27558;SDS011;15002;52.028;5.670;2023-06-24T06:04:38;10.23;;;6.82;;
27558;SDS011;15002;52.028;5.670;2023-06-24T06:07:04;9.95;;;7.10;;
27558;SDS011;15002;52.028;5.670;2023-06-24T06:09:30;12.82;;;6.95;;
27558;SDS011;15002;52.028;5.670;2023-06-24T06:11:55;13.32;;;7.22;;
27558;SDS011;15002;52.028;5.670;2023-06-24T06:14:21;11.07;;;7.15;;
27558;SDS011;15002;52.028;5.670;2023-06-24T06:16:46;13.15;;;7.40;;
27558;SDS011;15002;52.028;5.670;2023-06-24T06:19:12;9.73;;;6.75;;
27558;SDS011;15002;52.028;5.670;2023-06-24T06:21:38;11.82;;;7.07;;
27558;SDS011;15002;52.028;5.670;2023-06-24T06:24:03;11.40;;;7.32;;
27558;SDS011;15002;52.028;5.670;2023-06-24T06:26:29;9.48;;;6.85;;
27558;SDS011;15002;52.028;5.670;2023-06-24T06:28:55;9.60;;;6.20;;
27558;SDS011;15002;52.028;5.670;2023-06-24T06:31:21;10.35;;;6.47;;
27558;SDS011;15002;52.028;5.670;2023-06-24T06:33:47;10.85;;;6.53;;
27558;SDS011;15002;52.028;5.670;2023-06-24T06:36:13;8.63;;;6.05;;
27558;SDS011;15002;52.028;5.670;2023-06-24T06:38:40;6.65;;;5.32;;
27558;SDS011;15002;52.028;5.670;2023-06-24T06:41:05;7.15;;;5.82;;
27558;SDS011;15002;52.028;5.670;2023-06-24T06:43:32;10.25;;;5.70;;
27558;SDS011;15002;52.028;5.670;2023-06-24T06:45:58;8.32;;;5.80;;
27558;SDS011;15002;52.028;5.670;2023-06-24T06:48:24;6.75;;;5.82;;
27558;SDS011;15002;52.028;5.670;2023-06-24T06:50:49;8.25;;;5.50;;
27558;SDS011;15002;52.028;5.670;2023-06-24T06:53:17;6.18;;;4.70;;
27558;SDS011;15002;52.028;5.670;2023-06-24T06:55:43;8.70;;;5.22;;
27558;SDS011;15002;52.028;5.670;2023-06-24T06:58:08;6.53;;;4.85;;
27558;SDS011;15002;52.028;5.670;2023-06-24T07:00:34;7.20;;;4.65;;
27558;SDS011;15002;52.028;5.670;2023-06-24T07:03:00;5.32;;;4.43;;
27558;SDS011;15002;52.028;5.670;2023-06-24T07:05:25;6.47;;;5.07;;
27558;SDS011;15002;52.028;5.670;2023-06-24T07:07:51;6.25;;;4.80;;
27558;SDS011;15002;52.028;5.670;2023-06-24T07:10:18;6.07;;;4.70;;
27558;SDS011;15002;52.028;5.670;2023-06-24T07:12:44;7.15;;;4.85;;
27558;SDS011;15002;52.028;5.670;2023-06-24T07:15:10;6.72;;;4.93;;
27558;SDS011;15002;52.028;5.670;2023-06-24T07:17:36;5.30;;;4.18;;
27558;SDS011;15002;52.028;5.670;2023-06-24T07:20:02;5.47;;;4.00;;
27558;SDS011;15002;52.028;5.670;2023-06-24T07:22:28;4.47;;;4.07;;
27558;SDS011;15002;52.028;5.670;2023-06-24T07:24:55;3.83;;;3.38;;
27558;SDS011;15002;52.028;5.670;2023-06-24T07:27:21;6.20;;;3.67;;
27558;SDS011;15002;52.028;5.670;2023-06-24T07:29:47;6.07;;;3.53;;
27558;SDS011;15002;52.028;5.670;2023-06-24T07:32:13;5.10;;;3.05;;
27558;SDS011;15002;52.028;5.670;2023-06-24T07:34:38;6.40;;;3.47;;
27558;SDS011;15002;52.028;5.670;2023-06-24T07:37:04;5.88;;;3.25;;
27558;SDS011;15002;52.028;5.670;2023-06-24T07:39:29;4.50;;;3.10;;
27558;SDS011;15002;52.028;5.670;2023-06-24T07:41:55;3.95;;;2.95;;
27558;SDS011;15002;52.028;5.670;2023-06-24T07:44:21;6.70;;;3.03;;
27558;SDS011;15002;52.028;5.670;2023-06-24T07:46:46;3.17;;;2.85;;
27558;SDS011;15002;52.028;5.670;2023-06-24T07:49:13;10.07;;;3.67;;
27558;SDS011;15002;52.028;5.670;2023-06-24T07:51:39;5.28;;;3.03;;
27558;SDS011;15002;52.028;5.670;2023-06-24T07:54:04;6.32;;;3.92;;
27558;SDS011;15002;52.028;5.670;2023-06-24T07:56:30;4.95;;;3.10;;
27558;SDS011;15002;52.028;5.670;2023-06-24T07:58:56;5.05;;;3.78;;
27558;SDS011;15002;52.028;5.670;2023-06-24T08:01:21;4.20;;;3.80;;
27558;SDS011;15002;52.028;5.670;2023-06-24T08:03:47;6.03;;;3.58;;
27558;SDS011;15002;52.028;5.670;2023-06-24T08:06:13;3.67;;;3.38;;
27558;SDS011;15002;52.028;5.670;2023-06-24T08:08:38;4.85;;;3.83;;
27558;SDS011;15002;52.028;5.670;2023-06-24T08:11:04;4.70;;;3.35;;
27558;SDS011;15002;52.028;5.670;2023-06-24T08:13:30;4.28;;;3.38;;
27558;SDS011;15002;52.028;5.670;2023-06-24T08:15:56;3.45;;;2.90;;
27558;SDS011;15002;52.028;5.670;2023-06-24T08:18:22;3.58;;;3.05;;
27558;SDS011;15002;52.028;5.670;2023-06-24T08:20:47;6.45;;;3.22;;
27558;SDS011;15002;52.028;5.670;2023-06-24T08:23:13;4.50;;;3.70;;
27558;SDS011;15002;52.028;5.670;2023-06-24T08:25:39;6.00;;;4.13;;
27558;SDS011;15002;52.028;5.670;2023-06-24T08:28:04;5.80;;;4.05;;
27558;SDS011;15002;52.028;5.670;2023-06-24T08:30:30;7.47;;;3.80;;
27558;SDS011;15002;52.028;5.670;2023-06-24T08:32:55;4.53;;;3.90;;
27558;SDS011;15002;52.028;5.670;2023-06-24T08:35:21;4.45;;;3.67;;
27558;SDS011;15002;52.028;5.670;2023-06-24T08:37:47;4.68;;;3.30;;
27558;SDS011;15002;52.028;5.670;2023-06-24T08:40:12;5.57;;;3.83;;
27558;SDS011;15002;52.028;5.670;2023-06-24T08:42:38;3.97;;;3.17;;
27558;SDS011;15002;52.028;5.670;2023-06-24T08:45:04;4.57;;;3.45;;
27558;SDS011;15002;52.028;5.670;2023-06-24T08:47:30;4.13;;;3.63;;
27558;SDS011;15002;52.028;5.670;2023-06-24T08:50:00;4.07;;;3.30;;
27558;SDS011;15002;52.028;5.670;2023-06-24T08:52:29;4.90;;;3.63;;
27558;SDS011;15002;52.028;5.670;2023-06-24T08:54:57;5.28;;;3.88;;
27558;SDS011;15002;52.028;5.670;2023-06-24T08:57:25;6.00;;;4.18;;
27558;SDS011;15002;52.028;5.670;2023-06-24T08:59:51;7.28;;;3.75;;
27558;SDS011;15002;52.028;5.670;2023-06-24T09:02:18;5.18;;;3.50;;
27558;SDS011;15002;52.028;5.670;2023-06-24T09:04:44;6.28;;;3.92;;
27558;SDS011;15002;52.028;5.670;2023-06-24T09:07:10;4.38;;;3.25;;
27558;SDS011;15002;52.028;5.670;2023-06-24T09:09:43;3.97;;;3.33;;
27558;SDS011;15002;52.028;5.670;2023-06-24T09:12:13;4.22;;;3.45;;
27558;SDS011;15002;52.028;5.670;2023-06-24T09:14:40;3.95;;;3.55;;
27558;SDS011;15002;52.028;5.670;2023-06-24T09:17:06;5.35;;;3.38;;
27558;SDS011;15002;52.028;5.670;2023-06-24T09:19:34;5.28;;;3.60;;
27558;SDS011;15002;52.028;5.670;2023-06-24T09:22:05;4.07;;;3.65;;
27558;SDS011;15002;52.028;5.670;2023-06-24T09:24:35;4.07;;;3.10;;
27558;SDS011;15002;52.028;5.670;2023-06-24T09:27:02;5.40;;;3.88;;
27558;SDS011;15002;52.028;5.670;2023-06-24T09:29:31;4.85;;;3.78;;
27558;SDS011;15002;52.028;5.670;2023-06-24T09:31:57;5.35;;;4.00;;
27558;SDS011;15002;52.028;5.670;2023-06-24T09:34:25;5.22;;;4.20;;
27558;SDS011;15002;52.028;5.670;2023-06-24T09:36:52;5.20;;;3.72;;
27558;SDS011;15002;52.028;5.670;2023-06-24T09:39:19;4.78;;;4.00;;
27558;SDS011;15002;52.028;5.670;2023-06-24T09:41:53;8.15;;;5.15;;
27558;SDS011;15002;52.028;5.670;2023-06-24T09:44:20;8.32;;;5.38;;
27558;SDS011;15002;52.028;5.670;2023-06-24T09:46:45;7.60;;;4.47;;
27558;SDS011;15002;52.028;5.670;2023-06-24T09:49:11;6.25;;;4.60;;
27558;SDS011;15002;52.028;5.670;2023-06-24T09:51:38;6.10;;;5.25;;
27558;SDS011;15002;52.028;5.670;2023-06-24T09:54:07;8.02;;;5.43;;
27558;SDS011;15002;52.028;5.670;2023-06-24T09:56:35;7.25;;;4.53;;
27558;SDS011;15002;52.028;5.670;2023-06-24T09:59:04;8.90;;;6.15;;
27558;SDS011;15002;52.028;5.670;2023-06-24T10:01:32;6.32;;;5.13;;
27558;SDS011;15002;52.028;5.670;2023-06-24T10:04:04;7.30;;;4.03;;
27558;SDS011;15002;52.028;5.670;2023-06-24T10:06:31;8.00;;;5.03;;
27558;SDS011;15002;52.028;5.670;2023-06-24T10:09:00;6.30;;;4.78;;
27558;SDS011;15002;52.028;5.670;2023-06-24T10:11:26;5.70;;;4.20;;
27558;SDS011;15002;52.028;5.670;2023-06-24T10:13:52;15.73;;;10.88;;
27558;SDS011;15002;52.028;5.670;2023-06-24T10:16:19;24.70;;;15.65;;
27558;SDS011;15002;52.028;5.670;2023-06-24T10:18:45;15.75;;;11.20;;
27558;SDS011;15002;52.028;5.670;2023-06-24T10:21:12;8.80;;;6.80;;
27558;SDS011;15002;52.028;5.670;2023-06-24T10:23:51;12.40;;;8.43;;
27558;SDS011;15002;52.028;5.670;2023-06-24T10:26:28;27.88;;;18.55;;
27558;SDS011;15002;52.028;5.670;2023-06-24T10:37:03;10.52;;;7.70;;
27558;SDS011;15002;52.028;5.670;2023-06-24T10:39:39;11.95;;;8.38;;
27558;SDS011;15002;52.028;5.670;2023-06-24T10:44:53;11.90;;;8.95;;
27558;SDS011;15002;52.028;5.670;2023-06-24T10:47:21;9.85;;;7.07;;
27558;SDS011;15002;52.028;5.670;2023-06-24T10:49:48;12.43;;;7.53;;
27558;SDS011;15002;52.028;5.670;2023-06-24T10:52:14;22.45;;;13.50;;
27558;SDS011;15002;52.028;5.670;2023-06-24T10:54:40;60.80;;;38.63;;
27558;SDS011;15002;52.028;5.670;2023-06-24T10:57:06;98.40;;;64.47;;
27558;SDS011;15002;52.028;5.670;2023-06-24T10:59:39;22.23;;;15.05;;
27558;SDS011;15002;52.028;5.670;2023-06-24T11:02:07;52.28;;;34.58;;
27558;SDS011;15002;52.028;5.670;2023-06-24T11:04:41;17.58;;;12.85;;
27558;SDS011;15002;52.028;5.670;2023-06-24T11:07:10;18.42;;;12.13;;
27558;SDS011;15002;52.028;5.670;2023-06-24T11:09:36;9.35;;;6.90;;
27558;SDS011;15002;52.028;5.670;2023-06-24T11:12:02;8.38;;;6.25;;
27558;SDS011;15002;52.028;5.670;2023-06-24T11:14:28;8.90;;;5.80;;
27558;SDS011;15002;52.028;5.670;2023-06-24T11:16:54;9.90;;;7.28;;
27558;SDS011;15002;52.028;5.670;2023-06-24T11:19:20;8.80;;;6.60;;
27558;SDS011;15002;52.028;5.670;2023-06-24T11:21:45;7.70;;;5.40;;
27558;SDS011;15002;52.028;5.670;2023-06-24T11:24:11;7.53;;;5.40;;
27558;SDS011;15002;52.028;5.670;2023-06-24T11:26:37;10.05;;;6.63;;
27558;SDS011;15002;52.028;5.670;2023-06-24T11:29:12;9.15;;;5.80;;
27558;SDS011;15002;52.028;5.670;2023-06-24T11:31:38;7.78;;;5.05;;
27558;SDS011;15002;52.028;5.670;2023-06-24T11:34:04;7.55;;;5.03;;
27558;SDS011;15002;52.028;5.670;2023-06-24T11:36:31;7.93;;;6.10;;
27558;SDS011;15002;52.028;5.670;2023-06-24T11:38:56;7.15;;;5.43;;
27558;SDS011;15002;52.028;5.670;2023-06-24T11:41:22;6.55;;;5.85;;
27558;SDS011;15002;52.028;5.670;2023-06-24T11:43:50;7.82;;;6.05;;
27558;SDS011;15002;52.028;5.670;2023-06-24T11:46:26;11.02;;;6.97;;
27558;SDS011;15002;52.028;5.670;2023-06-24T11:49:06;8.18;;;6.60;;
27558;SDS011;15002;52.028;5.670;2023-06-24T11:51:33;9.60;;;5.78;;
27558;SDS011;15002;52.028;5.670;2023-06-24T11:53:59;7.60;;;5.80;;
27558;SDS011;15002;52.028;5.670;2023-06-24T11:56:36;6.90;;;5.03;;
27558;SDS011;15002;52.028;5.670;2023-06-24T11:59:05;8.63;;;5.85;;
27558;SDS011;15002;52.028;5.670;2023-06-24T12:01:32;8.55;;;6.47;;
27558;SDS011;15002;52.028;5.670;2023-06-24T12:04:20;7.38;;;5.40;;
27558;SDS011;15002;52.028;5.670;2023-06-24T12:06:45;7.90;;;4.82;;
27558;SDS011;15002;52.028;5.670;2023-06-24T12:09:11;7.78;;;5.20;;
27558;SDS011;15002;52.028;5.670;2023-06-24T12:11:37;5.63;;;4.65;;
27558;SDS011;15002;52.028;5.670;2023-06-24T12:14:03;6.82;;;5.30;;
27558;SDS011;15002;52.028;5.670;2023-06-24T12:16:29;8.55;;;5.50;;
27558;SDS011;15002;52.028;5.670;2023-06-24T12:18:55;6.70;;;5.97;;
27558;SDS011;15002;52.028;5.670;2023-06-24T12:21:21;7.95;;;5.18;;
27558;SDS011;15002;52.028;5.670;2023-06-24T12:23:46;4.88;;;4.38;;
27558;SDS011;15002;52.028;5.670;2023-06-24T12:26:12;6.35;;;5.05;;
27558;SDS011;15002;52.028;5.670;2023-06-24T12:28:38;6.53;;;5.55;;
27558;SDS011;15002;52.028;5.670;2023-06-24T12:31:04;8.65;;;5.95;;
27558;SDS011;15002;52.028;5.670;2023-06-24T12:33:30;8.35;;;6.32;;
27558;SDS011;15002;52.028;5.670;2023-06-24T12:35:56;8.77;;;5.30;;
27558;SDS011;15002;52.028;5.670;2023-06-24T12:38:21;6.70;;;5.40;;
27558;SDS011;15002;52.028;5.670;2023-06-24T12:40:47;5.78;;;4.50;;
27558;SDS011;15002;52.028;5.670;2023-06-24T12:43:13;8.63;;;5.40;;
27558;SDS011;15002;52.028;5.670;2023-06-24T12:45:39;9.50;;;5.43;;
27558;SDS011;15002;52.028;5.670;2023-06-24T12:48:08;9.70;;;4.72;;
27558;SDS011;15002;52.028;5.670;2023-06-24T12:50:34;6.32;;;4.60;;
27558;SDS011;15002;52.028;5.670;2023-06-24T12:53:00;6.53;;;4.50;;
27558;SDS011;15002;52.028;5.670;2023-06-24T12:55:27;7.10;;;5.05;;
27558;SDS011;15002;52.028;5.670;2023-06-24T12:57:52;8.18;;;5.10;;
27558;SDS011;15002;52.028;5.670;2023-06-24T13:00:21;6.47;;;4.72;;
27558;SDS011;15002;52.028;5.670;2023-06-24T13:02:48;6.80;;;5.03;;
27558;SDS011;15002;52.028;5.670;2023-06-24T13:05:15;7.28;;;4.88;;
27558;SDS011;15002;52.028;5.670;2023-06-24T13:07:41;6.10;;;4.80;;
27558;SDS011;15002;52.028;5.670;2023-06-24T13:10:06;5.50;;;4.35;;
27558;SDS011;15002;52.028;5.670;2023-06-24T13:12:33;6.95;;;4.78;;
27558;SDS011;15002;52.028;5.670;2023-06-24T13:14:59;8.13;;;4.22;;
27558;SDS011;15002;52.028;5.670;2023-06-24T13:17:24;7.85;;;4.32;;
27558;SDS011;15002;52.028;5.670;2023-06-24T13:19:51;4.88;;;4.07;;
27558;SDS011;15002;52.028;5.670;2023-06-24T13:22:17;5.63;;;4.38;;
27558;SDS011;15002;52.028;5.670;2023-06-24T13:24:43;9.82;;;5.57;;
27558;SDS011;15002;52.028;5.670;2023-06-24T13:27:09;6.55;;;4.82;;
27558;SDS011;15002;52.028;5.670;2023-06-24T13:29:35;4.93;;;4.53;;
27558;SDS011;15002;52.028;5.670;2023-06-24T13:32:01;6.75;;;4.63;;
27558;SDS011;15002;52.028;5.670;2023-06-24T13:34:27;8.23;;;4.53;;
27558;SDS011;15002;52.028;5.670;2023-06-24T13:36:53;5.70;;;4.53;;
27558;SDS011;15002;52.028;5.670;2023-06-24T13:39:19;6.22;;;4.35;;
27558;SDS011;15002;52.028;5.670;2023-06-24T13:41:48;5.00;;;4.50;;
27558;SDS011;15002;52.028;5.670;2023-06-24T13:44:15;6.63;;;4.50;;
27558;SDS011;15002;52.028;5.670;2023-06-24T13:46:41;5.88;;;4.70;;
27558;SDS011;15002;52.028;5.670;2023-06-24T13:49:07;5.55;;;4.20;;
27558;SDS011;15002;52.028;5.670;2023-06-24T13:51:33;6.65;;;4.75;;
27558;SDS011;15002;52.028;5.670;2023-06-24T13:53:59;7.30;;;4.53;;
27558;SDS011;15002;52.028;5.670;2023-06-24T13:56:25;7.22;;;4.07;;
27558;SDS011;15002;52.028;5.670;2023-06-24T13:58:52;8.27;;;4.32;;
27558;SDS011;15002;52.028;5.670;2023-06-24T14:01:18;5.72;;;4.78;;
27558;SDS011;15002;52.028;5.670;2023-06-24T14:03:44;8.27;;;4.50;;
27558;SDS011;15002;52.028;5.670;2023-06-24T14:06:10;6.25;;;4.50;;
27558;SDS011;15002;52.028;5.670;2023-06-24T14:08:39;6.57;;;4.60;;
27558;SDS011;15002;52.028;5.670;2023-06-24T14:11:05;5.93;;;4.63;;
27558;SDS011;15002;52.028;5.670;2023-06-24T14:13:30;6.65;;;4.88;;
27558;SDS011;15002;52.028;5.670;2023-06-24T14:15:56;6.20;;;4.70;;
27558;SDS011;15002;52.028;5.670;2023-06-24T14:18:22;5.30;;;4.35;;
27558;SDS011;15002;52.028;5.670;2023-06-24T14:20:48;5.47;;;4.78;;
27558;SDS011;15002;52.028;5.670;2023-06-24T14:23:14;8.27;;;4.70;;
27558;SDS011;15002;52.028;5.670;2023-06-24T14:25:40;5.35;;;4.18;;
27558;SDS011;15002;52.028;5.670;2023-06-24T14:28:06;5.20;;;4.40;;
27558;SDS011;15002;52.028;5.670;2023-06-24T14:30:32;4.90;;;4.38;;
27558;SDS011;15002;52.028;5.670;2023-06-24T14:32:59;5.00;;;3.95;;
27558;SDS011;15002;52.028;5.670;2023-06-24T14:35:25;4.63;;;3.75;;
27558;SDS011;15002;52.028;5.670;2023-06-24T14:37:51;6.43;;;4.72;;
27558;SDS011;15002;52.028;5.670;2023-06-24T14:40:17;8.05;;;4.75;;
27558;SDS011;15002;52.028;5.670;2023-06-24T14:42:43;6.03;;;4.63;;
27558;SDS011;15002;52.028;5.670;2023-06-24T14:45:09;5.82;;;5.00;;
27558;SDS011;15002;52.028;5.670;2023-06-24T14:47:35;8.02;;;5.40;;
27558;SDS011;15002;52.028;5.670;2023-06-24T14:50:00;8.38;;;4.30;;
27558;SDS011;15002;52.028;5.670;2023-06-24T14:52:27;6.15;;;5.22;;